createdAt,value
2023-11-10T00:00:12.160Z,6.55
2023-11-10T00:02:40.922Z,6.50
2023-11-10T00:05:08.437Z,6.49
2023-11-10T00:07:35.872Z,6.39
2023-11-10T00:10:04.391Z,6.39
2023-11-10T00:12:31.270Z,6.39
2023-11-10T00:15:00.632Z,6.44
2023-11-10T00:17:27.412Z,6.44
2023-11-10T00:19:54.250Z,6.41
2023-11-10T00:22:21.118Z,6.39
2023-11-10T00:24:48.135Z,6.34
2023-11-10T00:27:16.419Z,6.34
2023-11-10T00:29:46.841Z,6.31
2023-11-10T00:32:14.303Z,6.35
2023-11-10T00:34:42.272Z,6.35
2023-11-10T00:37:09.198Z,6.34
2023-11-10T00:39:36.215Z,6.34
2023-11-10T00:42:03.712Z,6.31
2023-11-10T00:44:30.523Z,6.32
2023-11-10T00:46:57.375Z,6.34
2023-11-10T00:49:24.134Z,6.36
2023-11-10T00:51:50.878Z,6.41
2023-11-10T00:54:18.022Z,6.45
2023-11-10T00:56:45.711Z,6.49
2023-11-10T01:01:40.935Z,6.56
2023-11-10T01:04:09.570Z,6.57
2023-11-10T01:06:37.002Z,6.56
2023-11-10T01:09:03.940Z,6.61
2023-11-10T01:11:30.787Z,6.68
2023-11-10T01:13:57.609Z,6.69
2023-11-10T01:16:25.618Z,6.71
2023-11-10T01:18:52.684Z,6.75
2023-11-10T01:21:20.349Z,6.76
2023-11-10T01:23:47.453Z,6.79
2023-11-10T01:26:14.543Z,6.76
2023-11-10T01:28:41.766Z,6.80
2023-11-10T01:31:10.410Z,6.86
2023-11-10T01:33:37.873Z,6.93
2023-11-10T01:36:05.313Z,6.93
2023-11-10T01:38:32.160Z,6.94
2023-11-10T01:40:58.879Z,6.96
2023-11-10T01:43:25.696Z,6.96
2023-11-10T01:45:52.764Z,6.97
2023-11-10T01:48:21.196Z,6.96
2023-11-10T01:50:48.161Z,6.97
2023-11-10T01:53:15.366Z,6.97
2023-11-10T01:55:44.892Z,6.94
2023-11-10T01:58:13.332Z,6.96
2023-11-10T02:00:40.644Z,6.94
2023-11-10T02:03:09.346Z,6.90
2023-11-10T02:05:36.842Z,6.90
2023-11-10T02:08:05.100Z,6.89
2023-11-10T02:10:32.828Z,6.82
2023-11-10T02:13:00.845Z,6.82
2023-11-10T02:15:29.635Z,6.79
2023-11-10T02:17:57.009Z,6.80
2023-11-10T02:20:24.670Z,6.79
2023-11-10T02:22:52.488Z,6.75
2023-11-10T02:25:21.246Z,6.69
2023-11-10T02:27:48.823Z,6.71
2023-11-10T02:30:16.105Z,6.71
2023-11-10T02:32:44.982Z,6.82
2023-11-10T02:35:12.363Z,6.73
2023-11-10T02:37:39.312Z,6.80
2023-11-10T02:40:07.670Z,6.84
2023-11-10T02:42:35.374Z,6.90
2023-11-10T02:45:02.734Z,6.94
2023-11-10T02:47:29.780Z,6.96
2023-11-10T02:49:56.824Z,6.97
2023-11-10T02:52:23.713Z,7.03
2023-11-10T02:54:50.455Z,7.04
2023-11-10T02:57:17.397Z,6.99
2023-11-10T02:59:44.340Z,6.99
2023-11-10T03:02:12.709Z,6.99
2023-11-10T03:04:42.385Z,7.05
2023-11-10T03:07:09.246Z,7.08
2023-11-10T03:09:36.182Z,7.03
2023-11-10T03:12:03.205Z,7.05
2023-11-10T03:14:30.374Z,7.01
2023-11-10T03:16:57.093Z,7.03
2023-11-10T03:19:23.961Z,7.01
2023-11-10T03:21:50.785Z,7.04
2023-11-10T03:24:17.957Z,7.04
2023-11-10T03:26:44.801Z,7.04
2023-11-10T03:29:11.603Z,7.04
2023-11-10T03:31:39.658Z,7.04
2023-11-10T03:34:06.517Z,7.08
2023-11-10T03:36:33.417Z,7.08
2023-11-10T03:39:00.583Z,7.11
2023-11-10T03:41:27.330Z,7.08
2023-11-10T03:43:54.316Z,7.08
2023-11-10T03:46:21.307Z,7.14
2023-11-10T03:48:48.106Z,7.10
2023-11-10T03:51:15.189Z,7.17
2023-11-10T03:53:43.273Z,7.13
2023-11-10T03:56:10.307Z,7.15
2023-11-10T03:58:37.079Z,7.17
2023-11-10T04:01:08.805Z,7.13
2023-11-10T04:03:35.981Z,7.17
2023-11-10T04:06:02.889Z,7.17
2023-11-10T04:08:29.714Z,7.20
2023-11-10T04:10:56.503Z,7.18
2023-11-10T04:13:23.399Z,7.20
2023-11-10T04:15:50.532Z,7.25
2023-11-10T04:18:22.655Z,7.24
2023-11-10T04:20:49.654Z,7.34
2023-11-10T04:23:17.019Z,7.36
2023-11-10T04:25:43.972Z,7.38
2023-11-10T04:28:13.505Z,7.38
2023-11-10T04:30:40.935Z,7.38
2023-11-10T04:33:08.024Z,7.40
2023-11-10T04:35:34.998Z,7.44
2023-11-10T04:38:02.445Z,7.41
2023-11-10T04:40:29.530Z,7.47
2023-11-10T04:42:59.470Z,7.48
2023-11-10T04:45:28.353Z,7.47
2023-11-10T04:48:25.686Z,7.58
2023-11-10T04:50:52.480Z,7.59
2023-11-10T04:53:19.302Z,7.65
2023-11-10T04:55:46.149Z,7.72
2023-11-10T04:58:12.927Z,7.81
2023-11-10T05:00:39.802Z,7.87
2023-11-10T05:03:07.654Z,7.93
2023-11-10T05:05:37.826Z,7.94
2023-11-10T05:08:05.093Z,7.99
2023-11-10T05:10:32.554Z,8.03
2023-11-10T05:12:59.328Z,8.00
2023-11-10T05:15:26.228Z,7.93
2023-11-10T05:17:53.046Z,7.99
2023-11-10T05:20:20.107Z,7.92
2023-11-10T05:22:46.934Z,7.92
2023-11-10T05:25:14.085Z,7.87
2023-11-10T05:27:41.588Z,7.87
2023-11-10T05:30:10.379Z,7.92
2023-11-10T05:32:37.993Z,7.82
2023-11-10T05:35:05.547Z,7.76
2023-11-10T05:37:33.001Z,7.78
2023-11-10T05:40:01.002Z,7.73
2023-11-10T05:42:27.823Z,7.79
2023-11-10T05:44:54.722Z,7.82
2023-11-10T05:47:21.713Z,7.82
2023-11-10T05:49:48.475Z,7.79
2023-11-10T05:52:15.521Z,7.89
2023-11-10T05:54:42.471Z,7.94
2023-11-10T05:57:09.504Z,7.89
2023-11-10T05:59:36.591Z,7.83
2023-11-10T06:02:04.373Z,7.75
2023-11-10T06:04:35.289Z,7.69
2023-11-10T06:07:03.595Z,7.71
2023-11-10T06:09:32.369Z,7.75
2023-11-10T06:11:59.733Z,7.78
2023-11-10T06:14:26.790Z,7.82
2023-11-10T06:16:53.819Z,7.81
2023-11-10T06:19:20.758Z,7.73
2023-11-10T06:21:47.604Z,7.78
2023-11-10T06:24:15.408Z,7.71
2023-11-10T06:26:42.222Z,7.76
2023-11-10T06:29:09.370Z,7.82
2023-11-10T06:31:36.335Z,7.83
2023-11-10T06:34:03.737Z,8.12
2023-11-10T06:36:30.753Z,8.13
2023-11-10T06:38:57.629Z,8.00
2023-11-10T06:41:25.462Z,7.93
2023-11-10T06:43:52.582Z,7.89
2023-11-10T06:46:22.129Z,7.82
2023-11-10T06:48:49.226Z,7.86
2023-11-10T06:51:16.573Z,7.86
2023-11-10T06:53:47.809Z,7.89
2023-11-10T06:56:15.616Z,8.02
2023-11-10T06:58:42.378Z,8.02
2023-11-10T07:01:10.174Z,8.06
2023-11-10T07:03:38.630Z,8.06
2023-11-10T07:06:08.329Z,8.13
2023-11-10T07:08:36.085Z,8.12
2023-11-10T07:11:04.174Z,8.12
2023-11-10T07:13:31.726Z,8.14
2023-11-10T07:16:00.457Z,8.24
2023-11-10T07:18:28.439Z,8.26
2023-11-10T07:20:56.140Z,8.26
2023-11-10T07:23:23.408Z,8.20
2023-11-10T07:25:53.978Z,8.20
2023-11-10T07:28:23.432Z,8.24
2023-11-10T07:37:12.913Z,8.30
2023-11-10T07:46:43.044Z,8.44
2023-11-10T19:01:30.818Z,7.75
2023-11-10T19:04:01.224Z,7.76
2023-11-10T19:09:13.002Z,7.75
2023-11-10T19:14:20.378Z,7.83
2023-11-10T19:19:34.100Z,7.85
2023-11-10T19:22:11.404Z,7.83
2023-11-10T19:27:29.026Z,7.73
2023-11-10T19:29:55.768Z,7.72
2023-11-10T19:35:03.702Z,7.73
2023-11-10T19:40:11.244Z,7.73
2023-11-10T19:45:19.028Z,7.72
2023-11-10T19:47:48.208Z,7.75
2023-11-10T19:50:17.479Z,7.72
2023-11-10T19:52:46.537Z,7.71
2023-11-10T19:55:15.829Z,7.73
2023-11-10T19:57:44.751Z,7.76
2023-11-10T20:02:49.223Z,7.75
2023-11-10T20:05:17.353Z,7.76
2023-11-10T20:07:44.065Z,7.82
2023-11-10T20:10:11.056Z,7.73
2023-11-10T20:12:37.821Z,7.73
2023-11-10T20:17:48.581Z,7.75
2023-11-10T20:22:58.512Z,7.83
2023-11-10T20:28:06.618Z,7.83
2023-11-10T20:33:13.854Z,7.85
2023-11-10T20:35:43.206Z,7.89
2023-11-10T20:38:11.674Z,7.89
2023-11-10T20:40:40.507Z,7.90
2023-11-10T20:43:08.988Z,7.87
2023-11-10T20:48:17.657Z,7.89
2023-11-10T20:50:49.534Z,7.90
2023-11-10T20:53:18.714Z,7.89
2023-11-10T20:55:47.716Z,7.93
2023-11-10T20:58:22.589Z,7.90
2023-11-10T21:00:49.233Z,7.90
2023-11-10T21:03:17.722Z,7.89
2023-11-10T21:05:48.275Z,7.90
2023-11-10T21:08:16.553Z,7.97
2023-11-10T21:10:43.798Z,7.87
2023-11-10T21:15:53.006Z,7.87
2023-11-10T21:18:52.281Z,7.93
2023-11-10T21:21:33.199Z,7.90
2023-11-10T21:24:00.056Z,7.89
2023-11-10T21:29:08.906Z,7.87
2023-11-10T21:34:18.421Z,7.87
2023-11-10T21:39:27.804Z,7.86
2023-11-10T21:44:36.039Z,7.86
2023-11-10T21:47:03.930Z,7.87
2023-11-10T21:52:11.624Z,7.89
2023-11-10T21:57:20.567Z,7.87
2023-11-10T22:02:29.046Z,7.89
2023-11-10T22:07:39.681Z,7.90
2023-11-10T22:12:53.307Z,7.92
2023-11-10T22:18:00.795Z,7.87
2023-11-10T22:23:09.790Z,8.03
2023-11-10T22:25:36.669Z,8.04
2023-11-10T22:28:10.903Z,8.02
2023-11-10T22:30:37.859Z,7.92
2023-11-10T22:33:04.710Z,7.85
2023-11-10T22:35:37.956Z,7.87
2023-11-10T22:38:04.709Z,7.86
2023-11-10T22:40:31.530Z,7.83
2023-11-10T22:45:41.908Z,8.03
2023-11-10T22:48:16.264Z,7.66
2023-11-10T22:50:43.985Z,7.47
2023-11-10T22:53:10.598Z,7.21
2023-11-10T22:55:43.419Z,7.05
2023-11-10T22:58:10.150Z,6.84
2023-11-10T23:03:25.922Z,6.71
2023-11-10T23:08:36.344Z,6.63
2023-11-10T23:13:43.591Z,6.59
2023-11-10T23:16:10.589Z,6.61
2023-11-10T23:18:40.349Z,6.56
2023-11-10T23:21:07.514Z,6.53
2023-11-10T23:23:34.500Z,6.59
2023-11-10T23:26:01.127Z,6.55
2023-11-10T23:28:30.371Z,6.50
2023-11-10T23:30:57.040Z,6.49
2023-11-10T23:33:23.720Z,6.50
2023-11-10T23:35:59.211Z,6.53
2023-11-10T23:38:29.737Z,6.46
2023-11-10T23:40:58.017Z,6.53
2023-11-10T23:43:25.304Z,6.52
2023-11-10T23:45:53.289Z,6.48
2023-11-10T23:48:20.172Z,6.52
2023-11-10T23:50:48.010Z,6.48
2023-11-10T23:53:19.092Z,6.56
2023-11-10T23:55:45.941Z,6.53
2023-11-10T23:58:12.679Z,6.57
